sensor_id;sensor_type;location;lat;lon;timestamp;P1;durP1;ratioP1;P2;durP2;ratioP2
23410;SDS011;11878;51.774;7.220;2023-03-29T00:02:14;6.33;;;2.17;;
23410;SDS011;11878;51.774;7.220;2023-03-29T00:05:18;6.57;;;2.20;;
23410;SDS011;11878;51.774;7.220;2023-03-29T00:08:26;4.93;;;2.23;;
23410;SDS011;11878;51.774;7.220;2023-03-29T00:11:27;4.30;;;2.17;;
23410;SDS011;11878;51.774;7.220;2023-03-29T00:14:29;3.87;;;2.30;;
23410;SDS011;11878;51.774;7.220;2023-03-29T00:17:31;3.30;;;2.00;;
23410;SDS011;11878;51.774;7.220;2023-03-29T00:20:33;8.33;;;2.80;;
23410;SDS011;11878;51.774;7.220;2023-03-29T00:23:35;7.47;;;2.63;;
23410;SDS011;11878;51.774;7.220;2023-03-29T00:26:37;3.67;;;2.03;;
23410;SDS011;11878;51.774;7.220;2023-03-29T00:29:38;4.00;;;2.03;;
23410;SDS011;11878;51.774;7.220;2023-03-29T00:32:40;4.87;;;2.10;;
23410;SDS011;11878;51.774;7.220;2023-03-29T00:35:43;5.00;;;2.03;;
23410;SDS011;11878;51.774;7.220;2023-03-29T00:38:45;5.67;;;2.30;;
23410;SDS011;11878;51.774;7.220;2023-03-29T00:41:47;4.03;;;2.23;;
23410;SDS011;11878;51.774;7.220;2023-03-29T00:47:56;4.77;;;2.03;;
23410;SDS011;11878;51.774;7.220;2023-03-29T00:51:02;6.73;;;2.07;;
23410;SDS011;11878;51.774;7.220;2023-03-29T00:54:11;4.40;;;2.13;;
23410;SDS011;11878;51.774;7.220;2023-03-29T00:57:16;7.43;;;2.57;;
23410;SDS011;11878;51.774;7.220;2023-03-29T01:00:21;3.97;;;2.17;;
23410;SDS011;11878;51.774;7.220;2023-03-29T01:03:34;5.33;;;2.00;;
23410;SDS011;11878;51.774;7.220;2023-03-29T01:06:57;6.00;;;2.00;;
23410;SDS011;11878;51.774;7.220;2023-03-29T01:10:05;5.10;;;2.43;;
23410;SDS011;11878;51.774;7.220;2023-03-29T01:13:30;4.93;;;1.67;;
23410;SDS011;11878;51.774;7.220;2023-03-29T01:16:40;5.13;;;2.40;;
23410;SDS011;11878;51.774;7.220;2023-03-29T01:19:44;5.33;;;2.20;;
23410;SDS011;11878;51.774;7.220;2023-03-29T01:29:24;2.53;;;1.70;;
23410;SDS011;11878;51.774;7.220;2023-03-29T01:32:45;5.33;;;2.23;;
23410;SDS011;11878;51.774;7.220;2023-03-29T01:38:58;5.63;;;2.37;;
23410;SDS011;11878;51.774;7.220;2023-03-29T01:45:40;2.47;;;1.63;;
23410;SDS011;11878;51.774;7.220;2023-03-29T01:49:13;3.30;;;2.23;;
23410;SDS011;11878;51.774;7.220;2023-03-29T01:52:43;3.53;;;2.00;;
23410;SDS011;11878;51.774;7.220;2023-03-29T01:56:10;4.60;;;2.17;;
23410;SDS011;11878;51.774;7.220;2023-03-29T01:59:22;5.10;;;2.37;;
23410;SDS011;11878;51.774;7.220;2023-03-29T02:02:30;3.50;;;1.90;;
23410;SDS011;11878;51.774;7.220;2023-03-29T02:05:32;4.37;;;2.47;;
23410;SDS011;11878;51.774;7.220;2023-03-29T02:08:36;3.57;;;2.77;;
23410;SDS011;11878;51.774;7.220;2023-03-29T02:11:40;5.43;;;2.27;;
23410;SDS011;11878;51.774;7.220;2023-03-29T02:14:45;5.27;;;2.17;;
23410;SDS011;11878;51.774;7.220;2023-03-29T02:17:47;3.50;;;2.13;;
23410;SDS011;11878;51.774;7.220;2023-03-29T02:20:51;3.57;;;1.83;;
23410;SDS011;11878;51.774;7.220;2023-03-29T02:23:54;4.40;;;2.30;;
23410;SDS011;11878;51.774;7.220;2023-03-29T02:26:59;5.03;;;2.20;;
23410;SDS011;11878;51.774;7.220;2023-03-29T02:30:02;6.47;;;2.43;;
23410;SDS011;11878;51.774;7.220;2023-03-29T02:33:09;4.97;;;2.17;;
23410;SDS011;11878;51.774;7.220;2023-03-29T02:36:52;4.33;;;2.90;;
23410;SDS011;11878;51.774;7.220;2023-03-29T02:39:50;6.97;;;2.17;;
23410;SDS011;11878;51.774;7.220;2023-03-29T02:42:54;3.43;;;1.90;;
23410;SDS011;11878;51.774;7.220;2023-03-29T02:45:57;4.47;;;2.40;;
23410;SDS011;11878;51.774;7.220;2023-03-29T02:49:01;3.73;;;2.30;;
23410;SDS011;11878;51.774;7.220;2023-03-29T02:52:07;6.47;;;2.13;;
23410;SDS011;11878;51.774;7.220;2023-03-29T02:55:13;3.23;;;1.87;;
23410;SDS011;11878;51.774;7.220;2023-03-29T02:58:17;3.70;;;1.93;;
23410;SDS011;11878;51.774;7.220;2023-03-29T03:01:19;4.67;;;2.03;;
23410;SDS011;11878;51.774;7.220;2023-03-29T03:04:22;3.90;;;2.17;;
23410;SDS011;11878;51.774;7.220;2023-03-29T03:07:26;8.40;;;2.50;;
23410;SDS011;11878;51.774;7.220;2023-03-29T03:10:29;6.87;;;2.50;;
23410;SDS011;11878;51.774;7.220;2023-03-29T03:13:31;5.20;;;2.30;;
23410;SDS011;11878;51.774;7.220;2023-03-29T03:16:32;3.03;;;1.87;;
23410;SDS011;11878;51.774;7.220;2023-03-29T03:19:34;3.77;;;2.10;;
23410;SDS011;11878;51.774;7.220;2023-03-29T03:22:44;4.47;;;2.57;;
23410;SDS011;11878;51.774;7.220;2023-03-29T03:25:49;8.27;;;2.70;;
23410;SDS011;11878;51.774;7.220;2023-03-29T03:28:53;3.30;;;2.13;;
23410;SDS011;11878;51.774;7.220;2023-03-29T03:32:22;6.33;;;2.30;;
23410;SDS011;11878;51.774;7.220;2023-03-29T03:35:24;4.93;;;2.57;;
23410;SDS011;11878;51.774;7.220;2023-03-29T03:38:26;7.83;;;2.47;;
23410;SDS011;11878;51.774;7.220;2023-03-29T03:41:31;4.30;;;2.13;;
23410;SDS011;11878;51.774;7.220;2023-03-29T03:44:34;5.97;;;2.10;;
23410;SDS011;11878;51.774;7.220;2023-03-29T03:47:55;4.60;;;2.33;;
23410;SDS011;11878;51.774;7.220;2023-03-29T03:51:14;7.17;;;2.80;;
23410;SDS011;11878;51.774;7.220;2023-03-29T03:54:16;7.03;;;2.67;;
23410;SDS011;11878;51.774;7.220;2023-03-29T03:57:46;6.57;;;2.37;;
23410;SDS011;11878;51.774;7.220;2023-03-29T04:00:51;5.03;;;2.27;;
23410;SDS011;11878;51.774;7.220;2023-03-29T04:04:10;5.43;;;2.20;;
23410;SDS011;11878;51.774;7.220;2023-03-29T04:07:14;7.00;;;2.67;;
23410;SDS011;11878;51.774;7.220;2023-03-29T04:10:17;4.83;;;2.47;;
23410;SDS011;11878;51.774;7.220;2023-03-29T04:13:36;7.37;;;2.73;;
23410;SDS011;11878;51.774;7.220;2023-03-29T04:16:55;5.20;;;2.77;;
23410;SDS011;11878;51.774;7.220;2023-03-29T04:20:18;5.07;;;2.30;;
23410;SDS011;11878;51.774;7.220;2023-03-29T04:23:20;5.10;;;2.33;;
23410;SDS011;11878;51.774;7.220;2023-03-29T04:26:22;4.87;;;2.40;;
23410;SDS011;11878;51.774;7.220;2023-03-29T04:29:30;7.17;;;2.30;;
23410;SDS011;11878;51.774;7.220;2023-03-29T04:51:12;6.70;;;2.67;;
23410;SDS011;11878;51.774;7.220;2023-03-29T04:54:18;6.70;;;2.43;;
23410;SDS011;11878;51.774;7.220;2023-03-29T05:15:24;9.03;;;3.60;;
23410;SDS011;11878;51.774;7.220;2023-03-29T05:18:27;6.60;;;3.50;;
23410;SDS011;11878;51.774;7.220;2023-03-29T05:38:57;7.53;;;3.33;;
23410;SDS011;11878;51.774;7.220;2023-03-29T05:42:01;6.70;;;3.20;;
23410;SDS011;11878;51.774;7.220;2023-03-29T06:23:43;4.83;;;3.40;;
23410;SDS011;11878;51.774;7.220;2023-03-29T06:53:59;5.23;;;3.27;;
23410;SDS011;11878;51.774;7.220;2023-03-29T07:15:08;8.57;;;3.53;;
23410;SDS011;11878;51.774;7.220;2023-03-29T07:18:31;5.47;;;2.90;;
23410;SDS011;11878;51.774;7.220;2023-03-29T07:25:10;4.70;;;2.87;;
23410;SDS011;11878;51.774;7.220;2023-03-29T07:28:13;9.50;;;3.87;;
23410;SDS011;11878;51.774;7.220;2023-03-29T07:44:50;7.23;;;3.20;;
23410;SDS011;11878;51.774;7.220;2023-03-29T07:58:07;7.53;;;3.37;;
23410;SDS011;11878;51.774;7.220;2023-03-29T08:01:10;11.50;;;3.20;;
23410;SDS011;11878;51.774;7.220;2023-03-29T08:22:12;8.60;;;3.50;;
23410;SDS011;11878;51.774;7.220;2023-03-29T08:25:33;7.17;;;3.13;;
23410;SDS011;11878;51.774;7.220;2023-03-29T08:28:36;6.07;;;3.10;;
23410;SDS011;11878;51.774;7.220;2023-03-29T08:35:09;6.30;;;3.10;;
23410;SDS011;11878;51.774;7.220;2023-03-29T08:38:20;6.97;;;3.10;;
23410;SDS011;11878;51.774;7.220;2023-03-29T09:05:29;7.23;;;3.10;;
23410;SDS011;11878;51.774;7.220;2023-03-29T10:16:38;17.07;;;8.57;;
23410;SDS011;11878;51.774;7.220;2023-03-29T10:19:51;11.87;;;4.90;;
23410;SDS011;11878;51.774;7.220;2023-03-29T10:22:57;7.33;;;5.00;;
23410;SDS011;11878;51.774;7.220;2023-03-29T10:26:03;7.77;;;5.07;;
23410;SDS011;11878;51.774;7.220;2023-03-29T10:29:09;10.23;;;4.20;;
23410;SDS011;11878;51.774;7.220;2023-03-29T10:38:52;9.90;;;5.00;;
23410;SDS011;11878;51.774;7.220;2023-03-29T10:45:33;12.33;;;5.27;;
23410;SDS011;11878;51.774;7.220;2023-03-29T12:04:20;6.00;;;3.00;;
23410;SDS011;11878;51.774;7.220;2023-03-29T12:14:39;10.03;;;3.40;;
23410;SDS011;11878;51.774;7.220;2023-03-29T12:21:03;6.03;;;2.87;;
23410;SDS011;11878;51.774;7.220;2023-03-29T12:24:12;4.77;;;2.90;;
23410;SDS011;11878;51.774;7.220;2023-03-29T13:31:54;14.20;;;5.17;;
23410;SDS011;11878;51.774;7.220;2023-03-29T13:38:46;11.53;;;6.23;;
23410;SDS011;11878;51.774;7.220;2023-03-29T13:41:51;10.23;;;7.20;;
23410;SDS011;11878;51.774;7.220;2023-03-29T13:45:03;12.43;;;6.63;;
23410;SDS011;11878;51.774;7.220;2023-03-29T13:49:00;12.13;;;5.67;;
23410;SDS011;11878;51.774;7.220;2023-03-29T13:54:55;10.77;;;5.33;;
23410;SDS011;11878;51.774;7.220;2023-03-29T14:01:46;7.27;;;4.83;;
23410;SDS011;11878;51.774;7.220;2023-03-29T14:04:50;8.10;;;5.07;;
23410;SDS011;11878;51.774;7.220;2023-03-29T14:07:54;9.83;;;4.63;;
23410;SDS011;11878;51.774;7.220;2023-03-29T14:10:59;8.10;;;4.33;;
23410;SDS011;11878;51.774;7.220;2023-03-29T14:14:03;8.13;;;4.40;;
23410;SDS011;11878;51.774;7.220;2023-03-29T14:17:10;15.53;;;4.60;;
23410;SDS011;11878;51.774;7.220;2023-03-29T14:20:22;9.17;;;4.03;;
23410;SDS011;11878;51.774;7.220;2023-03-29T14:23:29;7.47;;;4.33;;
23410;SDS011;11878;51.774;7.220;2023-03-29T14:26:36;8.80;;;4.17;;
23410;SDS011;11878;51.774;7.220;2023-03-29T14:29:43;5.57;;;3.47;;
23410;SDS011;11878;51.774;7.220;2023-03-29T14:32:54;5.70;;;3.13;;
23410;SDS011;11878;51.774;7.220;2023-03-29T14:35:57;7.43;;;3.10;;
23410;SDS011;11878;51.774;7.220;2023-03-29T14:39:06;6.13;;;3.13;;
23410;SDS011;11878;51.774;7.220;2023-03-29T14:42:14;8.43;;;3.47;;
23410;SDS011;11878;51.774;7.220;2023-03-29T14:45:21;7.73;;;3.70;;
23410;SDS011;11878;51.774;7.220;2023-03-29T14:48:25;6.47;;;3.50;;
23410;SDS011;11878;51.774;7.220;2023-03-29T14:51:28;8.10;;;3.60;;
23410;SDS011;11878;51.774;7.220;2023-03-29T14:54:31;6.47;;;3.20;;
23410;SDS011;11878;51.774;7.220;2023-03-29T14:57:38;4.23;;;2.70;;
23410;SDS011;11878;51.774;7.220;2023-03-29T15:00:49;6.73;;;2.90;;
23410;SDS011;11878;51.774;7.220;2023-03-29T15:07:02;4.33;;;2.60;;
23410;SDS011;11878;51.774;7.220;2023-03-29T15:10:06;10.70;;;2.83;;
23410;SDS011;11878;51.774;7.220;2023-03-29T15:13:14;6.60;;;2.50;;
23410;SDS011;11878;51.774;7.220;2023-03-29T15:16:20;10.93;;;2.67;;
23410;SDS011;11878;51.774;7.220;2023-03-29T15:19:23;3.40;;;1.87;;
23410;SDS011;11878;51.774;7.220;2023-03-29T15:22:30;7.93;;;2.10;;
23410;SDS011;11878;51.774;7.220;2023-03-29T15:25:34;6.23;;;2.50;;
23410;SDS011;11878;51.774;7.220;2023-03-29T15:28:45;4.77;;;2.27;;
23410;SDS011;11878;51.774;7.220;2023-03-29T15:31:56;3.77;;;2.20;;
23410;SDS011;11878;51.774;7.220;2023-03-29T15:35:00;3.90;;;2.63;;
23410;SDS011;11878;51.774;7.220;2023-03-29T15:38:05;6.73;;;2.40;;
23410;SDS011;11878;51.774;7.220;2023-03-29T15:41:07;6.10;;;2.33;;
23410;SDS011;11878;51.774;7.220;2023-03-29T15:44:13;5.03;;;2.33;;
23410;SDS011;11878;51.774;7.220;2023-03-29T15:47:20;6.73;;;2.37;;
23410;SDS011;11878;51.774;7.220;2023-03-29T15:50:22;5.67;;;2.10;;
23410;SDS011;11878;51.774;7.220;2023-03-29T15:53:24;8.47;;;2.20;;
23410;SDS011;11878;51.774;7.220;2023-03-29T15:56:28;5.67;;;2.00;;
23410;SDS011;11878;51.774;7.220;2023-03-29T15:59:33;8.40;;;2.30;;
23410;SDS011;11878;51.774;7.220;2023-03-29T16:02:37;4.30;;;1.87;;
23410;SDS011;11878;51.774;7.220;2023-03-29T16:05:40;5.87;;;2.00;;
23410;SDS011;11878;51.774;7.220;2023-03-29T16:08:46;4.63;;;1.73;;
23410;SDS011;11878;51.774;7.220;2023-03-29T16:11:48;6.70;;;2.33;;
23410;SDS011;11878;51.774;7.220;2023-03-29T16:14:52;3.30;;;1.60;;
23410;SDS011;11878;51.774;7.220;2023-03-29T16:17:54;5.10;;;1.80;;
23410;SDS011;11878;51.774;7.220;2023-03-29T16:20:56;3.70;;;1.60;;
23410;SDS011;11878;51.774;7.220;2023-03-29T16:23:59;3.93;;;1.60;;
23410;SDS011;11878;51.774;7.220;2023-03-29T16:27:02;3.63;;;1.53;;
23410;SDS011;11878;51.774;7.220;2023-03-29T16:30:04;4.77;;;1.30;;
23410;SDS011;11878;51.774;7.220;2023-03-29T16:33:07;4.07;;;1.53;;
23410;SDS011;11878;51.774;7.220;2023-03-29T16:36:09;3.70;;;1.40;;
23410;SDS011;11878;51.774;7.220;2023-03-29T16:39:13;3.60;;;1.30;;
23410;SDS011;11878;51.774;7.220;2023-03-29T16:42:19;2.77;;;1.20;;
23410;SDS011;11878;51.774;7.220;2023-03-29T16:45:21;3.77;;;1.33;;
23410;SDS011;11878;51.774;7.220;2023-03-29T16:48:24;2.93;;;1.63;;
23410;SDS011;11878;51.774;7.220;2023-03-29T16:51:27;3.63;;;1.60;;
23410;SDS011;11878;51.774;7.220;2023-03-29T16:54:40;3.97;;;2.00;;
23410;SDS011;11878;51.774;7.220;2023-03-29T16:57:43;9.50;;;2.30;;
23410;SDS011;11878;51.774;7.220;2023-03-29T17:00:49;4.57;;;1.80;;
23410;SDS011;11878;51.774;7.220;2023-03-29T17:03:54;3.10;;;1.23;;
23410;SDS011;11878;51.774;7.220;2023-03-29T17:06:57;5.27;;;1.57;;
23410;SDS011;11878;51.774;7.220;2023-03-29T17:10:02;5.03;;;1.97;;
23410;SDS011;11878;51.774;7.220;2023-03-29T17:13:06;2.93;;;1.20;;
23410;SDS011;11878;51.774;7.220;2023-03-29T17:16:10;5.43;;;2.23;;
23410;SDS011;11878;51.774;7.220;2023-03-29T17:19:15;11.30;;;3.90;;
23410;SDS011;11878;51.774;7.220;2023-03-29T17:22:16;3.90;;;1.20;;
23410;SDS011;11878;51.774;7.220;2023-03-29T17:25:19;2.20;;;1.17;;
23410;SDS011;11878;51.774;7.220;2023-03-29T17:28:22;1.93;;;1.00;;
23410;SDS011;11878;51.774;7.220;2023-03-29T17:31:25;3.07;;;1.13;;
23410;SDS011;11878;51.774;7.220;2023-03-29T17:34:27;3.70;;;1.30;;
23410;SDS011;11878;51.774;7.220;2023-03-29T17:37:29;2.93;;;1.10;;
23410;SDS011;11878;51.774;7.220;2023-03-29T17:40:31;2.97;;;1.10;;
23410;SDS011;11878;51.774;7.220;2023-03-29T17:43:41;8.27;;;1.20;;
23410;SDS011;11878;51.774;7.220;2023-03-29T17:46:44;4.87;;;1.10;;
23410;SDS011;11878;51.774;7.220;2023-03-29T17:49:46;5.47;;;1.50;;
23410;SDS011;11878;51.774;7.220;2023-03-29T17:52:48;4.50;;;1.50;;
23410;SDS011;11878;51.774;7.220;2023-03-29T17:55:53;3.30;;;1.53;;
23410;SDS011;11878;51.774;7.220;2023-03-29T17:58:55;4.97;;;1.30;;
23410;SDS011;11878;51.774;7.220;2023-03-29T18:01:58;4.17;;;1.40;;
23410;SDS011;11878;51.774;7.220;2023-03-29T18:05:03;3.47;;;1.50;;
23410;SDS011;11878;51.774;7.220;2023-03-29T18:08:07;5.73;;;1.70;;
23410;SDS011;11878;51.774;7.220;2023-03-29T18:11:19;3.83;;;1.63;;
23410;SDS011;11878;51.774;7.220;2023-03-29T18:14:23;6.13;;;2.73;;
23410;SDS011;11878;51.774;7.220;2023-03-29T18:17:25;4.53;;;2.43;;
23410;SDS011;11878;51.774;7.220;2023-03-29T18:20:28;6.30;;;2.50;;
23410;SDS011;11878;51.774;7.220;2023-03-29T18:23:30;6.30;;;2.53;;
23410;SDS011;11878;51.774;7.220;2023-03-29T18:26:34;8.83;;;3.40;;
23410;SDS011;11878;51.774;7.220;2023-03-29T18:29:36;8.73;;;3.27;;
23410;SDS011;11878;51.774;7.220;2023-03-29T18:32:38;12.23;;;3.70;;
23410;SDS011;11878;51.774;7.220;2023-03-29T18:35:42;20.00;;;9.30;;
23410;SDS011;11878;51.774;7.220;2023-03-29T18:38:49;15.03;;;6.27;;
23410;SDS011;11878;51.774;7.220;2023-03-29T18:41:53;10.63;;;4.70;;
23410;SDS011;11878;51.774;7.220;2023-03-29T18:44:56;10.97;;;5.40;;
23410;SDS011;11878;51.774;7.220;2023-03-29T18:47:58;8.90;;;4.20;;
23410;SDS011;11878;51.774;7.220;2023-03-29T18:51:04;10.20;;;4.83;;
23410;SDS011;11878;51.774;7.220;2023-03-29T18:54:07;10.33;;;4.37;;
23410;SDS011;11878;51.774;7.220;2023-03-29T18:57:09;12.83;;;4.93;;
23410;SDS011;11878;51.774;7.220;2023-03-29T19:00:14;29.30;;;9.43;;
23410;SDS011;11878;51.774;7.220;2023-03-29T19:03:21;26.33;;;7.60;;
23410;SDS011;11878;51.774;7.220;2023-03-29T19:06:24;109.13;;;23.03;;
23410;SDS011;11878;51.774;7.220;2023-03-29T19:09:26;123.70;;;24.57;;
23410;SDS011;11878;51.774;7.220;2023-03-29T19:12:28;86.33;;;19.93;;
23410;SDS011;11878;51.774;7.220;2023-03-29T19:15:31;15.17;;;4.73;;
23410;SDS011;11878;51.774;7.220;2023-03-29T19:18:35;6.93;;;3.00;;
23410;SDS011;11878;51.774;7.220;2023-03-29T19:21:37;12.23;;;3.90;;
23410;SDS011;11878;51.774;7.220;2023-03-29T19:24:39;8.87;;;4.90;;
23410;SDS011;11878;51.774;7.220;2023-03-29T19:27:41;9.60;;;4.77;;
23410;SDS011;11878;51.774;7.220;2023-03-29T19:30:46;10.07;;;3.10;;
23410;SDS011;11878;51.774;7.220;2023-03-29T19:33:48;4.40;;;1.83;;
23410;SDS011;11878;51.774;7.220;2023-03-29T19:37:09;4.87;;;2.43;;
23410;SDS011;11878;51.774;7.220;2023-03-29T19:40:11;3.10;;;1.77;;
23410;SDS011;11878;51.774;7.220;2023-03-29T19:43:14;4.90;;;1.90;;
23410;SDS011;11878;51.774;7.220;2023-03-29T19:46:17;2.83;;;1.60;;
23410;SDS011;11878;51.774;7.220;2023-03-29T19:49:18;7.27;;;1.60;;
23410;SDS011;11878;51.774;7.220;2023-03-29T19:52:20;7.70;;;2.03;;
23410;SDS011;11878;51.774;7.220;2023-03-29T19:55:24;6.33;;;2.47;;
23410;SDS011;11878;51.774;7.220;2023-03-29T19:58:26;4.43;;;2.53;;
23410;SDS011;11878;51.774;7.220;2023-03-29T20:01:31;5.63;;;2.93;;
23410;SDS011;11878;51.774;7.220;2023-03-29T20:04:33;5.70;;;2.60;;
23410;SDS011;11878;51.774;7.220;2023-03-29T20:07:38;7.53;;;2.77;;
23410;SDS011;11878;51.774;7.220;2023-03-29T20:10:40;4.40;;;2.60;;
23410;SDS011;11878;51.774;7.220;2023-03-29T20:13:43;7.53;;;1.93;;
23410;SDS011;11878;51.774;7.220;2023-03-29T20:16:46;4.00;;;1.63;;
23410;SDS011;11878;51.774;7.220;2023-03-29T20:19:50;4.17;;;1.60;;
23410;SDS011;11878;51.774;7.220;2023-03-29T20:22:54;4.47;;;1.70;;
23410;SDS011;11878;51.774;7.220;2023-03-29T20:26:05;2.93;;;1.73;;
23410;SDS011;11878;51.774;7.220;2023-03-29T20:29:07;3.83;;;1.73;;
23410;SDS011;11878;51.774;7.220;2023-03-29T20:32:09;2.33;;;1.40;;
23410;SDS011;11878;51.774;7.220;2023-03-29T20:35:12;3.03;;;1.93;;
23410;SDS011;11878;51.774;7.220;2023-03-29T20:38:13;3.90;;;2.10;;
23410;SDS011;11878;51.774;7.220;2023-03-29T20:41:16;5.80;;;2.30;;
23410;SDS011;11878;51.774;7.220;2023-03-29T20:44:32;4.43;;;2.50;;
23410;SDS011;11878;51.774;7.220;2023-03-29T20:47:35;3.60;;;1.60;;
23410;SDS011;11878;51.774;7.220;2023-03-29T20:50:44;14.30;;;2.60;;
23410;SDS011;11878;51.774;7.220;2023-03-29T20:57:26;2.93;;;1.60;;
23410;SDS011;11878;51.774;7.220;2023-03-29T21:00:31;7.77;;;3.07;;
23410;SDS011;11878;51.774;7.220;2023-03-29T21:03:35;2.03;;;1.50;;
23410;SDS011;11878;51.774;7.220;2023-03-29T21:06:38;3.23;;;2.00;;
23410;SDS011;11878;51.774;7.220;2023-03-29T21:09:40;5.03;;;2.00;;
23410;SDS011;11878;51.774;7.220;2023-03-29T21:12:42;8.10;;;3.50;;
23410;SDS011;11878;51.774;7.220;2023-03-29T21:15:45;7.03;;;2.63;;
23410;SDS011;11878;51.774;7.220;2023-03-29T21:18:47;6.67;;;3.83;;
23410;SDS011;11878;51.774;7.220;2023-03-29T21:21:49;13.03;;;3.23;;
23410;SDS011;11878;51.774;7.220;2023-03-29T21:24:52;7.57;;;3.13;;
23410;SDS011;11878;51.774;7.220;2023-03-29T21:27:54;6.87;;;3.30;;
23410;SDS011;11878;51.774;7.220;2023-03-29T21:30:56;7.30;;;2.50;;
23410;SDS011;11878;51.774;7.220;2023-03-29T21:33:58;4.93;;;2.50;;
23410;SDS011;11878;51.774;7.220;2023-03-29T21:37:00;6.40;;;2.87;;
23410;SDS011;11878;51.774;7.220;2023-03-29T21:40:03;4.27;;;2.40;;
23410;SDS011;11878;51.774;7.220;2023-03-29T21:43:06;5.70;;;2.53;;
23410;SDS011;11878;51.774;7.220;2023-03-29T21:46:08;4.60;;;2.50;;
23410;SDS011;11878;51.774;7.220;2023-03-29T21:49:11;5.00;;;1.90;;
23410;SDS011;11878;51.774;7.220;2023-03-29T21:52:13;4.20;;;2.10;;
23410;SDS011;11878;51.774;7.220;2023-03-29T21:55:14;5.77;;;1.93;;
23410;SDS011;11878;51.774;7.220;2023-03-29T21:58:17;3.50;;;1.97;;
23410;SDS011;11878;51.774;7.220;2023-03-29T22:01:19;4.20;;;1.70;;
23410;SDS011;11878;51.774;7.220;2023-03-29T22:04:20;4.57;;;1.90;;
23410;SDS011;11878;51.774;7.220;2023-03-29T22:07:37;5.20;;;1.70;;
23410;SDS011;11878;51.774;7.220;2023-03-29T22:10:39;4.50;;;2.10;;
23410;SDS011;11878;51.774;7.220;2023-03-29T22:13:43;4.97;;;1.80;;
23410;SDS011;11878;51.774;7.220;2023-03-29T22:16:45;5.77;;;2.27;;
23410;SDS011;11878;51.774;7.220;2023-03-29T22:19:47;6.27;;;1.40;;
23410;SDS011;11878;51.774;7.220;2023-03-29T22:22:49;4.13;;;1.60;;
23410;SDS011;11878;51.774;7.220;2023-03-29T22:25:51;3.53;;;1.77;;
23410;SDS011;11878;51.774;7.220;2023-03-29T22:28:53;5.83;;;1.87;;
23410;SDS011;11878;51.774;7.220;2023-03-29T22:31:55;4.37;;;1.77;;
23410;SDS011;11878;51.774;7.220;2023-03-29T22:34:57;2.27;;;1.63;;
23410;SDS011;11878;51.774;7.220;2023-03-29T22:37:59;3.67;;;2.07;;
23410;SDS011;11878;51.774;7.220;2023-03-29T22:41:01;7.60;;;1.90;;
23410;SDS011;11878;51.774;7.220;2023-03-29T22:44:03;4.37;;;1.70;;
23410;SDS011;11878;51.774;7.220;2023-03-29T22:47:05;5.27;;;1.70;;
23410;SDS011;11878;51.774;7.220;2023-03-29T22:50:07;6.00;;;1.83;;
23410;SDS011;11878;51.774;7.220;2023-03-29T22:53:09;3.70;;;1.33;;
23410;SDS011;11878;51.774;7.220;2023-03-29T22:56:12;3.87;;;1.60;;
23410;SDS011;11878;51.774;7.220;2023-03-29T22:59:14;3.33;;;1.63;;
23410;SDS011;11878;51.774;7.220;2023-03-29T23:02:16;3.23;;;1.50;;
23410;SDS011;11878;51.774;7.220;2023-03-29T23:05:18;4.93;;;1.57;;
23410;SDS011;11878;51.774;7.220;2023-03-29T23:08:20;6.63;;;1.60;;
23410;SDS011;11878;51.774;7.220;2023-03-29T23:11:22;7.57;;;1.30;;
23410;SDS011;11878;51.774;7.220;2023-03-29T23:14:24;5.50;;;1.40;;
23410;SDS011;11878;51.774;7.220;2023-03-29T23:17:26;5.87;;;1.67;;
23410;SDS011;11878;51.774;7.220;2023-03-29T23:20:28;3.60;;;1.60;;
23410;SDS011;11878;51.774;7.220;2023-03-29T23:23:30;4.50;;;1.30;;
23410;SDS011;11878;51.774;7.220;2023-03-29T23:26:32;4.30;;;1.60;;
23410;SDS011;11878;51.774;7.220;2023-03-29T23:29:35;5.50;;;1.57;;
23410;SDS011;11878;51.774;7.220;2023-03-29T23:32:38;2.90;;;1.60;;
23410;SDS011;11878;51.774;7.220;2023-03-29T23:35:40;1.60;;;1.30;;
23410;SDS011;11878;51.774;7.220;2023-03-29T23:38:44;5.37;;;1.53;;
23410;SDS011;11878;51.774;7.220;2023-03-29T23:41:47;2.43;;;1.50;;
23410;SDS011;11878;51.774;7.220;2023-03-29T23:44:48;4.23;;;1.63;;
23410;SDS011;11878;51.774;7.220;2023-03-29T23:47:50;2.63;;;1.63;;
23410;SDS011;11878;51.774;7.220;2023-03-29T23:50:53;6.73;;;1.83;;
23410;SDS011;11878;51.774;7.220;2023-03-29T23:53:58;2.97;;;1.20;;
23410;SDS011;11878;51.774;7.220;2023-03-29T23:57:00;2.83;;;1.40;;
